Time;durP1;ratioP1;P1;durP2;ratioP2;P2;SDS_P1;SDS_P2;PMS_P1;PMS_P2;Temp;Humidity;BMP_temperature;BMP_pressure;BME280_temperature;BME280_humidity;BME280_pressure;Samples;Min_cycle;Max_cycle;Signal;HPM_P1;HPM_P2
2024/04/04 00:02:21;;;;;;;10.40;1.63;;;11.10;99.90;;;;;;5137911;27;20046;-92
2024/04/04 00:04:58;;;;;;;7.75;2.53;;;11.00;99.90;;;;;;5156397;27;20041;-92
2024/04/04 00:07:24;;;;;;;3.03;1.08;;;11.00;99.90;;;;;;5148435;27;20443;-93
2024/04/04 00:09:51;;;;;;;5.95;2.05;;;11.00;99.90;;;;;;5116578;27;20117;-92
2024/04/04 00:12:19;;;;;;;8.40;1.67;;;11.00;99.90;;;;;;5099649;27;20410;-92
2024/04/04 00:14:45;;;;;;;8.50;1.75;;;11.00;99.90;;;;;;5145682;27;20126;-92
2024/04/04 00:17:11;;;;;;;3.53;0.98;;;10.90;99.90;;;;;;5119921;27;20489;-92
2024/04/04 00:19:37;;;;;;;6.32;1.80;;;10.90;99.90;;;;;;5137003;27;20039;-92
2024/04/04 00:22:02;;;;;;;14.52;3.97;;;10.80;99.90;;;;;;5137155;27;20039;-93
2024/04/04 00:24:28;;;;;;;2.95;0.90;;;10.80;99.90;;;;;;5119860;27;20050;-92
2024/04/04 00:26:54;;;;;;;6.40;1.25;;;10.80;99.90;;;;;;5136589;27;20039;-93
2024/04/04 00:29:19;;;;;;;9.65;1.90;;;10.80;99.90;;;;;;5119340;27;20125;-92
2024/04/04 00:31:45;;;;;;;6.00;1.63;;;10.80;99.90;;;;;;5151579;27;20038;-92
2024/04/04 00:34:11;;;;;;;4.72;1.50;;;10.80;99.90;;;;;;5137236;27;20489;-92
2024/04/04 00:36:36;;;;;;;13.10;2.53;;;10.80;99.90;;;;;;5148520;27;20572;-92
2024/04/04 00:39:04;;;;;;;5.72;1.25;;;10.70;99.90;;;;;;5140229;27;20038;-92
2024/04/04 00:41:30;;;;;;;6.47;1.20;;;10.70;99.90;;;;;;5138102;27;20102;-92
2024/04/04 00:43:55;;;;;;;7.97;1.63;;;10.70;99.90;;;;;;5119562;27;20497;-92
2024/04/04 00:46:22;;;;;;;9.23;1.40;;;10.70;99.90;;;;;;5135846;27;20039;-93
2024/04/04 00:48:47;;;;;;;4.07;1.02;;;10.70;99.90;;;;;;5116947;27;20035;-92
2024/04/04 00:51:14;;;;;;;6.68;1.50;;;10.70;99.90;;;;;;5110077;27;20508;-93
2024/04/04 00:53:40;;;;;;;12.15;2.05;;;10.60;99.90;;;;;;5140460;27;20439;-93
2024/04/04 00:56:06;;;;;;;7.15;1.95;;;10.60;99.90;;;;;;5115968;27;20039;-92
2024/04/04 00:58:32;;;;;;;6.55;1.50;;;10.70;99.90;;;;;;5118961;27;20171;-93
2024/04/04 01:00:58;;;;;;;14.20;2.00;;;10.60;99.90;;;;;;5119525;27;20035;-93
2024/04/04 01:03:24;;;;;;;4.55;1.00;;;10.60;99.90;;;;;;5119152;27;20031;-92
2024/04/04 01:05:49;;;;;;;14.05;2.95;;;10.60;99.90;;;;;;5136015;27;20506;-92
2024/04/04 01:08:16;;;;;;;7.18;1.67;;;10.60;99.90;;;;;;5136707;27;20061;-92
2024/04/04 01:10:42;;;;;;;10.25;1.20;;;10.60;99.90;;;;;;5136068;27;20038;-93
2024/04/04 01:13:07;;;;;;;5.82;1.27;;;10.50;99.90;;;;;;5118994;27;20039;-93
2024/04/04 01:15:33;;;;;;;10.27;1.45;;;10.50;99.90;;;;;;5136424;27;20073;-92
2024/04/04 01:17:59;;;;;;;3.92;1.13;;;10.50;99.90;;;;;;5112279;27;20043;-93
2024/04/04 01:20:25;;;;;;;6.97;1.15;;;10.40;99.90;;;;;;5125464;27;20046;-93
2024/04/04 01:22:51;;;;;;;3.10;1.48;;;10.40;99.90;;;;;;5154822;27;20034;-93
2024/04/04 01:25:17;;;;;;;8.82;2.03;;;10.30;99.90;;;;;;5119107;27;20051;-93
2024/04/04 01:27:43;;;;;;;3.97;1.15;;;10.30;99.90;;;;;;5127358;27;20038;-93
2024/04/04 01:30:09;;;;;;;4.50;0.90;;;10.30;99.90;;;;;;5119294;27;20509;-93
2024/04/04 01:32:35;;;;;;;3.15;0.63;;;10.20;99.90;;;;;;5104567;27;20042;-93
2024/04/04 01:35:01;;;;;;;6.80;1.17;;;10.20;99.90;;;;;;5156728;27;20129;-94
2024/04/04 01:37:27;;;;;;;9.02;1.35;;;10.20;99.90;;;;;;5156548;27;20155;-93
2024/04/04 01:39:52;;;;;;;14.82;3.70;;;10.10;99.90;;;;;;5139190;27;20042;-92
2024/04/04 01:42:18;;;;;;;16.90;3.67;;;10.20;99.90;;;;;;5129583;27;20406;-92
2024/04/04 01:44:44;;;;;;;5.63;1.10;;;10.20;99.90;;;;;;5118460;27;20042;-92
2024/04/04 01:47:09;;;;;;;3.53;0.98;;;10.20;99.90;;;;;;5118454;27;20046;-92
2024/04/04 01:49:35;;;;;;;6.18;1.10;;;10.10;99.90;;;;;;5118370;27;20037;-92
2024/04/04 01:52:01;;;;;;;4.65;1.63;;;10.00;99.90;;;;;;5135700;27;20409;-92
2024/04/04 01:54:26;;;;;;;7.65;1.88;;;9.90;99.90;;;;;;5135224;27;20125;-93
2024/04/04 01:56:52;;;;;;;15.57;3.80;;;9.90;99.90;;;;;;5117667;27;20035;-92
2024/04/04 01:59:18;;;;;;;8.45;1.55;;;9.90;99.90;;;;;;5152928;27;20035;-92
2024/04/04 02:01:43;;;;;;;6.97;1.20;;;9.90;99.90;;;;;;5127946;27;20041;-92
2024/04/04 02:04:09;;;;;;;8.13;1.75;;;9.80;99.90;;;;;;5127431;27;20088;-92
2024/04/04 02:06:35;;;;;;;7.60;1.48;;;9.80;99.90;;;;;;5116974;27;20459;-92
2024/04/04 02:09:00;;;;;;;10.55;2.00;;;9.70;99.90;;;;;;5134715;27;20049;-93
2024/04/04 02:11:26;;;;;;;3.97;1.42;;;9.70;99.90;;;;;;5133844;27;20038;-92
2024/04/04 02:13:51;;;;;;;7.60;2.10;;;9.60;99.90;;;;;;5135022;27;20557;-93
2024/04/04 02:16:17;;;;;;;6.00;1.48;;;9.60;99.90;;;;;;5117450;27;20042;-92
2024/04/04 02:18:43;;;;;;;7.57;1.20;;;9.60;99.90;;;;;;5117300;27;20433;-93
2024/04/04 02:21:09;;;;;;;6.32;1.20;;;9.50;99.90;;;;;;5135416;27;20172;-93
2024/04/04 02:23:34;;;;;;;5.80;1.02;;;9.50;99.90;;;;;;5117652;27;20425;-93
2024/04/04 02:26:00;;;;;;;14.55;3.30;;;9.50;99.90;;;;;;5101994;27;20042;-92
2024/04/04 02:28:26;;;;;;;2.97;1.20;;;9.60;99.90;;;;;;5116015;27;20035;-92
2024/04/04 02:30:51;;;;;;;5.13;1.23;;;9.50;99.90;;;;;;5134781;27;20038;-92
2024/04/04 02:33:18;;;;;;;5.88;1.40;;;9.40;99.90;;;;;;5152757;27;20031;-92
2024/04/04 02:35:57;;;;;;;11.98;2.50;;;9.40;99.90;;;;;;5153332;27;20048;-92
2024/04/04 02:38:24;;;;;;;10.25;1.67;;;9.40;99.90;;;;;;5134702;27;20035;-92
2024/04/04 02:40:50;;;;;;;3.40;0.93;;;9.40;99.90;;;;;;5134302;27;20070;-93
2024/04/04 02:43:16;;;;;;;8.52;1.95;;;9.30;99.90;;;;;;5117498;27;20078;-92
2024/04/04 02:45:43;;;;;;;4.55;1.30;;;9.30;99.90;;;;;;5134841;27;20497;-92
2024/04/04 02:48:09;;;;;;;6.03;1.83;;;9.30;99.90;;;;;;5130991;27;20043;-92
2024/04/04 02:50:34;;;;;;;10.13;1.80;;;9.30;99.90;;;;;;5116660;27;20027;-92
2024/04/04 02:53:00;;;;;;;10.02;1.95;;;9.30;99.90;;;;;;5152967;27;20586;-92
2024/04/04 02:55:27;;;;;;;6.40;1.30;;;9.30;99.90;;;;;;5134433;27;20100;-92
2024/04/04 02:57:53;;;;;;;6.95;1.58;;;9.20;99.90;;;;;;5134282;27;20037;-92
2024/04/04 03:00:18;;;;;;;8.65;1.98;;;9.30;99.90;;;;;;5152650;27;20031;-93
2024/04/04 03:02:44;;;;;;;7.53;1.50;;;9.20;99.90;;;;;;5117267;27;20463;-92
2024/04/04 03:05:10;;;;;;;5.97;1.88;;;9.20;99.90;;;;;;5117402;27;20182;-92
2024/04/04 03:07:36;;;;;;;6.85;1.60;;;9.20;99.90;;;;;;5133985;27;20512;-92
2024/04/04 03:10:03;;;;;;;5.88;0.95;;;9.20;99.90;;;;;;5117090;27;20042;-92
2024/04/04 03:12:28;;;;;;;5.10;1.25;;;9.20;99.90;;;;;;5134251;27;20042;-92
2024/04/04 03:14:54;;;;;;;8.30;1.17;;;9.20;99.90;;;;;;5134351;27;20046;-92
2024/04/04 03:17:19;;;;;;;6.90;1.60;;;9.20;99.90;;;;;;5133794;27;20190;-92
2024/04/04 03:19:45;;;;;;;10.77;1.73;;;9.20;99.90;;;;;;5137887;27;20039;-92
2024/04/04 03:22:11;;;;;;;6.47;1.95;;;9.30;99.90;;;;;;5131102;27;20034;-92
2024/04/04 03:24:36;;;;;;;3.15;1.23;;;9.30;99.90;;;;;;5160658;27;20512;-92
2024/04/04 03:27:02;;;;;;;3.83;0.57;;;9.20;99.90;;;;;;5147832;27;20034;-92
2024/04/04 03:29:28;;;;;;;8.63;1.63;;;9.20;99.90;;;;;;5121396;27;20039;-93
2024/04/04 03:31:54;;;;;;;6.30;1.00;;;9.20;99.90;;;;;;5120888;27;20566;-92
2024/04/04 03:34:19;;;;;;;1.98;0.75;;;9.30;99.90;;;;;;5156709;27;20038;-92
2024/04/04 03:36:47;;;;;;;4.50;1.40;;;9.30;99.90;;;;;;5120584;27;20497;-92
2024/04/04 03:39:13;;;;;;;8.18;1.50;;;9.30;99.90;;;;;;5136982;27;20042;-92
2024/04/04 03:41:39;;;;;;;5.28;1.33;;;9.30;99.90;;;;;;5137978;27;20122;-93
2024/04/04 03:44:05;;;;;;;4.15;1.35;;;9.30;99.90;;;;;;5122041;27;20038;-91
2024/04/04 03:46:32;;;;;;;3.28;1.05;;;9.40;99.90;;;;;;5099620;27;20511;-92
2024/04/04 03:48:57;;;;;;;5.18;0.98;;;9.40;99.90;;;;;;5135476;27;20087;-93
2024/04/04 03:51:24;;;;;;;7.38;1.42;;;9.40;99.90;;;;;;5100172;27;20125;-93
2024/04/04 03:53:50;;;;;;;7.60;1.50;;;9.40;99.90;;;;;;5141223;27;20042;-93
2024/04/04 03:56:15;;;;;;;7.80;2.08;;;9.40;99.90;;;;;;5155675;27;20501;-93
2024/04/04 03:58:41;;;;;;;6.57;1.00;;;9.40;99.90;;;;;;5120379;27;20068;-93
2024/04/04 04:01:07;;;;;;;6.63;1.48;;;9.40;99.90;;;;;;5137655;27;20126;-93
2024/04/04 04:03:34;;;;;;;5.72;0.85;;;9.50;99.90;;;;;;5134618;27;20038;-92
2024/04/04 04:06:00;;;;;;;4.95;1.42;;;9.50;99.90;;;;;;5116589;27;20118;-93
2024/04/04 04:08:26;;;;;;;1.20;0.50;;;9.50;99.90;;;;;;5127615;27;20039;-92
2024/04/04 04:10:52;;;;;;;7.75;1.42;;;9.60;99.90;;;;;;5120517;27;20087;-93
2024/04/04 04:13:18;;;;;;;3.15;0.75;;;9.60;99.90;;;;;;5119717;27;20038;-92
2024/04/04 04:15:57;;;;;;;5.03;0.85;;;9.60;99.90;;;;;;5100147;27;20379;-92
2024/04/04 04:18:22;;;;;;;4.65;1.15;;;9.60;99.90;;;;;;5099556;27;20118;-93
2024/04/04 04:23:32;;;;;;;4.95;1.40;;;9.60;99.90;;;;;;5116392;27;20430;-93
2024/04/04 04:25:58;;;;;;;2.22;0.93;;;9.60;99.90;;;;;;5131655;27;20045;-93
2024/04/04 04:28:23;;;;;;;2.85;0.65;;;9.60;99.90;;;;;;5137032;27;20409;-93
2024/04/04 04:30:51;;;;;;;5.88;1.23;;;9.70;99.90;;;;;;5136126;27;20505;-93
2024/04/04 04:33:17;;;;;;;8.32;1.42;;;9.70;99.90;;;;;;5155668;27;20074;-92
2024/04/04 04:35:43;;;;;;;4.05;1.30;;;9.70;99.90;;;;;;5163594;27;20038;-93
2024/04/04 04:38:08;;;;;;;3.72;1.65;;;9.70;99.90;;;;;;5163499;27;20540;-93
2024/04/04 04:40:34;;;;;;;5.40;1.23;;;9.70;99.90;;;;;;5140244;27;20069;-93
2024/04/04 04:43:00;;;;;;;5.38;1.15;;;9.70;99.90;;;;;;5145352;27;20031;-93
2024/04/04 04:45:26;;;;;;;4.97;1.17;;;9.70;99.90;;;;;;5116209;27;20031;-93
2024/04/04 04:47:52;;;;;;;8.38;1.63;;;9.70;99.90;;;;;;5130362;27;20046;-93
2024/04/04 04:50:17;;;;;;;6.20;1.75;;;9.70;99.90;;;;;;5136580;27;20087;-93
2024/04/04 04:52:43;;;;;;;8.55;1.70;;;9.70;99.90;;;;;;5119648;27;20123;-93
2024/04/04 04:55:09;;;;;;;7.93;1.92;;;9.80;99.90;;;;;;5136984;27;20070;-93
2024/04/04 04:57:35;;;;;;;8.35;1.88;;;9.80;99.90;;;;;;5154651;27;20031;-93
2024/04/04 05:00:01;;;;;;;4.05;1.13;;;9.80;99.90;;;;;;5118925;27;20066;-93
2024/04/04 05:02:27;;;;;;;5.63;1.63;;;9.80;99.90;;;;;;5136335;27;20045;-93
2024/04/04 05:04:52;;;;;;;5.75;1.75;;;9.80;99.90;;;;;;5136519;27;20026;-92
2024/04/04 05:07:18;;;;;;;4.45;1.52;;;9.80;99.90;;;;;;5119134;27;20034;-93
2024/04/04 05:09:44;;;;;;;8.60;1.50;;;9.80;99.90;;;;;;5131647;27;20465;-93
2024/04/04 05:12:09;;;;;;;6.25;1.27;;;9.80;99.90;;;;;;5116076;27;20042;-91
2024/04/04 05:14:35;;;;;;;6.60;1.98;;;9.80;99.90;;;;;;5115680;27;20606;-93
2024/04/04 05:17:01;;;;;;;9.25;1.50;;;9.80;99.90;;;;;;5133667;27;20055;-92
2024/04/04 05:19:27;;;;;;;10.35;1.58;;;9.80;99.90;;;;;;5115064;27;20051;-93
2024/04/04 05:21:52;;;;;;;7.18;1.40;;;9.80;99.90;;;;;;5115826;27;20038;-93
2024/04/04 05:24:18;;;;;;;6.88;1.45;;;9.80;99.90;;;;;;5098698;27;20064;-93
2024/04/04 05:26:43;;;;;;;4.90;1.38;;;9.80;99.90;;;;;;5115454;27;20074;-92
2024/04/04 05:29:12;;;;;;;5.93;1.27;;;9.80;99.90;;;;;;5098149;27;20047;-93
2024/04/04 05:31:37;;;;;;;7.45;1.90;;;9.80;99.90;;;;;;5137303;27;20114;-93
2024/04/04 05:34:03;;;;;;;6.65;1.30;;;9.80;99.90;;;;;;5118727;27;20122;-93
2024/04/04 05:36:29;;;;;;;5.97;1.42;;;9.80;99.90;;;;;;5120454;27;20125;-93
2024/04/04 05:38:54;;;;;;;6.78;1.60;;;9.90;99.90;;;;;;5156277;27;20034;-93
2024/04/04 05:41:20;;;;;;;4.65;1.20;;;9.90;99.90;;;;;;5120527;27;20043;-92
2024/04/04 05:43:45;;;;;;;8.15;1.80;;;9.90;99.90;;;;;;5136042;27;20022;-93
2024/04/04 05:46:11;;;;;;;6.53;1.17;;;9.90;99.90;;;;;;5118368;27;20590;-93
2024/04/04 05:48:37;;;;;;;6.60;1.50;;;9.90;99.90;;;;;;5114763;27;20047;-93
2024/04/04 05:51:04;;;;;;;6.65;1.48;;;9.90;99.90;;;;;;5115276;27;20051;-94
2024/04/04 05:53:33;;;;;;;4.88;1.30;;;9.90;99.90;;;;;;5109253;27;20034;-94
2024/04/04 05:55:58;;;;;;;6.05;1.63;;;10.00;99.90;;;;;;5119349;27;20042;-93
2024/04/04 05:58:24;;;;;;;4.53;1.38;;;9.90;99.90;;;;;;5137461;27;20043;-93
2024/04/04 06:00:51;;;;;;;3.75;1.88;;;10.00;99.90;;;;;;5142739;27;20035;-94
2024/04/04 06:03:17;;;;;;;10.82;3.83;;;10.00;99.90;;;;;;5135992;27;20049;-93
2024/04/04 06:05:43;;;;;;;7.90;1.92;;;10.10;99.90;;;;;;5109891;27;20401;-93
2024/04/04 06:08:09;;;;;;;7.50;1.63;;;10.10;99.90;;;;;;5101884;27;20043;-92
2024/04/04 06:10:35;;;;;;;5.78;1.52;;;10.00;99.90;;;;;;5132772;27;20043;-93
2024/04/04 06:13:01;;;;;;;9.60;1.98;;;10.00;99.90;;;;;;5114797;27;20043;-92
2024/04/04 06:15:27;;;;;;;6.93;1.67;;;10.00;99.90;;;;;;5133325;27;20459;-94
2024/04/04 06:17:53;;;;;;;8.77;1.90;;;10.00;99.90;;;;;;5097315;27;20084;-93
2024/04/04 06:20:18;;;;;;;5.70;2.15;;;10.00;99.90;;;;;;5097602;27;20498;-92
2024/04/04 06:22:44;;;;;;;5.20;1.75;;;10.10;99.90;;;;;;5114793;27;20060;-93
2024/04/04 06:25:10;;;;;;;5.70;2.03;;;10.00;99.90;;;;;;5114453;27;20509;-93
2024/04/04 06:27:35;;;;;;;6.10;2.35;;;10.10;99.90;;;;;;5132435;27;20122;-92
2024/04/04 06:30:01;;;;;;;6.60;2.28;;;10.10;99.90;;;;;;5096781;27;20521;-93
2024/04/04 06:32:27;;;;;;;4.85;1.85;;;10.10;99.90;;;;;;5100952;27;20051;-91
2024/04/04 06:34:53;;;;;;;4.35;1.80;;;10.10;99.90;;;;;;5150115;27;20414;-92
2024/04/04 06:37:18;;;;;;;9.95;2.45;;;10.10;99.90;;;;;;5134624;27;20513;-92
2024/04/04 06:39:44;;;;;;;8.35;2.67;;;10.20;99.90;;;;;;5134245;27;20078;-92
2024/04/04 06:42:11;;;;;;;10.75;4.60;;;10.10;99.90;;;;;;5117525;27;20071;-93
2024/04/04 06:44:37;;;;;;;7.65;2.08;;;10.20;99.90;;;;;;5126772;27;20098;-94
2024/04/04 06:47:03;;;;;;;8.48;2.17;;;10.30;99.90;;;;;;5101917;27;20050;-94
2024/04/04 06:49:28;;;;;;;4.28;1.70;;;10.20;99.90;;;;;;5113538;27;20039;-93
2024/04/04 06:51:55;;;;;;;5.78;2.33;;;10.20;99.90;;;;;;5114216;27;20549;-94
2024/04/04 06:54:21;;;;;;;5.20;1.77;;;10.20;99.90;;;;;;5132402;27;20054;-93
2024/04/04 06:56:47;;;;;;;5.90;2.22;;;10.20;99.90;;;;;;5113286;28;20057;-93
2024/04/04 06:59:13;;;;;;;4.55;2.10;;;10.20;99.90;;;;;;5113675;27;20733;-95
2024/04/04 07:01:38;;;;;;;6.13;2.08;;;10.30;99.90;;;;;;5114153;28;20501;-93
2024/04/04 07:04:05;;;;;;;4.47;1.58;;;10.30;99.90;;;;;;5114347;28;20093;-93
2024/04/04 07:06:30;;;;;;;5.72;2.25;;;10.30;99.90;;;;;;5107478;27;20087;-93
2024/04/04 07:08:56;;;;;;;4.65;2.00;;;10.30;99.90;;;;;;5114552;27;20121;-93
2024/04/04 07:11:22;;;;;;;6.25;2.15;;;10.30;99.90;;;;;;5129582;27;20026;-94
2024/04/04 07:13:48;;;;;;;5.68;1.67;;;10.40;99.90;;;;;;5129544;27;20038;-93
2024/04/04 07:16:13;;;;;;;7.15;2.45;;;10.40;99.90;;;;;;5127896;27;20039;-93
2024/04/04 07:18:39;;;;;;;6.97;2.45;;;10.40;99.90;;;;;;5112355;27;20409;-94
2024/04/04 07:21:06;;;;;;;5.32;2.25;;;10.50;99.90;;;;;;5129307;27;20058;-93
2024/04/04 07:23:35;;;;;;;7.35;2.25;;;10.40;99.90;;;;;;5148356;27;20042;-93
2024/04/04 07:26:01;;;;;;;4.10;1.88;;;10.50;99.90;;;;;;5112379;27;20099;-94
2024/04/04 07:28:27;;;;;;;6.82;2.50;;;10.50;99.90;;;;;;5129170;27;20485;-93
2024/04/04 07:30:52;;;;;;;6.18;3.17;;;10.50;99.90;;;;;;5129005;27;20026;-93
2024/04/04 07:33:18;;;;;;;6.53;2.13;;;10.60;99.90;;;;;;5109767;27;20406;-93
2024/04/04 07:35:45;;;;;;;10.48;7.00;;;10.60;99.90;;;;;;5128545;27;20781;-93
2024/04/04 07:38:13;;;;;;;7.45;3.38;;;10.70;99.90;;;;;;5130660;27;20039;-94
2024/04/04 07:40:39;;;;;;;6.15;2.80;;;10.70;99.90;;;;;;5161568;27;20042;-94
2024/04/04 07:43:06;;;;;;;6.28;2.50;;;10.70;99.90;;;;;;5128783;27;20038;-93
2024/04/04 07:45:39;;;;;;;7.20;2.40;;;10.70;99.90;;;;;;5108236;27;20049;-93
2024/04/04 07:48:08;;;;;;;5.65;2.70;;;10.80;99.90;;;;;;5129673;27;20571;-93
2024/04/04 07:50:34;;;;;;;8.85;3.15;;;10.80;99.90;;;;;;5127894;27;20049;-93
2024/04/04 07:53:00;;;;;;;6.05;2.90;;;10.80;99.90;;;;;;5129335;27;20038;-94
2024/04/04 07:55:25;;;;;;;5.55;2.85;;;10.90;99.90;;;;;;5129860;27;20473;-93
2024/04/04 07:57:51;;;;;;;6.03;2.38;;;10.90;99.90;;;;;;5115016;27;20560;-93
2024/04/04 08:00:18;;;;;;;6.97;2.78;;;11.00;99.90;;;;;;5132594;27;20045;-93
2024/04/04 08:02:45;;;;;;;10.20;7.25;;;11.00;99.90;;;;;;5116099;27;20034;-93
2024/04/04 08:05:10;;;;;;;6.45;2.33;;;11.10;99.90;;;;;;5134046;27;20042;-93
2024/04/04 08:07:36;;;;;;;7.38;2.33;;;11.10;99.90;;;;;;5116356;27;20078;-93
2024/04/04 08:10:07;;;;;;;9.85;7.40;;;11.20;99.90;;;;;;5150584;27;20034;-93
2024/04/04 08:12:35;;;;;;;6.18;2.40;;;11.30;99.90;;;;;;5113567;27;20490;-93
2024/04/04 08:15:04;;;;;;;7.32;2.72;;;11.30;99.90;;;;;;5113530;27;20042;-93
2024/04/04 08:17:33;;;;;;;6.93;2.80;;;11.30;99.90;;;;;;5130761;27;20122;-94
2024/04/04 08:19:59;;;;;;;4.93;2.22;;;11.30;99.90;;;;;;5115391;27;20391;-93
2024/04/04 08:22:25;;;;;;;7.28;2.92;;;11.40;99.90;;;;;;5115976;27;20034;-94
2024/04/04 08:24:51;;;;;;;8.27;2.55;;;11.40;99.90;;;;;;5152668;27;20066;-93
2024/04/04 08:27:20;;;;;;;6.47;2.30;;;11.40;99.90;;;;;;5113865;27;20075;-94
2024/04/04 08:29:49;;;;;;;5.60;2.17;;;11.40;99.90;;;;;;5131431;27;20037;-94
2024/04/04 08:32:16;;;;;;;4.18;1.92;;;11.40;99.90;;;;;;5134659;27;20118;-94
2024/04/04 08:34:42;;;;;;;5.32;2.25;;;11.50;99.90;;;;;;5118757;27;20046;-94
2024/04/04 08:37:08;;;;;;;7.03;2.08;;;11.50;99.90;;;;;;5138262;27;20034;-94
2024/04/04 08:39:34;;;;;;;8.45;4.70;;;11.50;99.90;;;;;;5135866;27;20041;-94
2024/04/04 08:41:59;;;;;;;5.00;1.77;;;11.60;99.90;;;;;;5132591;27;20486;-93
2024/04/04 08:44:26;;;;;;;5.53;2.00;;;11.70;99.90;;;;;;5146920;27;20039;-93
2024/04/04 08:46:53;;;;;;;3.42;1.30;;;11.60;99.90;;;;;;5136619;27;20555;-93
2024/04/04 08:49:19;;;;;;;6.03;1.83;;;11.60;99.90;;;;;;5114064;27;20121;-93
2024/04/04 08:51:47;;;;;;;4.80;1.50;;;11.70;99.90;;;;;;5116011;27;20034;-92
2024/04/04 08:54:17;;;;;;;4.93;1.33;;;11.70;99.90;;;;;;5151243;27;20052;-92
2024/04/04 08:56:44;;;;;;;3.35;1.55;;;11.80;99.90;;;;;;5115020;27;20034;-92
2024/04/04 08:59:10;;;;;;;4.70;1.58;;;11.80;99.90;;;;;;5133555;27;20042;-94
2024/04/04 09:01:36;;;;;;;4.22;1.23;;;11.90;99.90;;;;;;5153383;27;20023;-93
2024/04/04 09:04:01;;;;;;;6.38;1.85;;;11.90;99.90;;;;;;5151284;27;20497;-92
2024/04/04 09:06:27;;;;;;;2.83;1.13;;;11.90;99.90;;;;;;5129033;27;20027;-93
2024/04/04 09:08:59;;;;;;;3.13;1.27;;;11.90;99.90;;;;;;5131475;27;20034;-94
2024/04/04 09:11:25;;;;;;;6.15;2.92;;;12.00;99.90;;;;;;5111300;27;20062;-94
2024/04/04 09:14:09;;;;;;;7.55;3.05;;;12.10;99.90;;;;;;5149532;27;20043;-94
2024/04/04 09:16:45;;;;;;;4.38;1.30;;;12.20;99.90;;;;;;5148310;27;20035;-94
2024/04/04 09:19:16;;;;;;;3.95;1.48;;;12.20;99.90;;;;;;5131500;27;20042;-93
2024/04/04 09:21:45;;;;;;;4.43;1.63;;;12.20;99.90;;;;;;5114551;27;20046;-93
2024/04/04 09:24:13;;;;;;;3.75;1.42;;;12.20;99.90;;;;;;5131628;27;20130;-94
2024/04/04 09:26:40;;;;;;;2.63;1.10;;;12.20;99.90;;;;;;5110184;27;20555;-94
2024/04/04 09:29:06;;;;;;;4.57;1.40;;;12.30;99.90;;;;;;5149935;27;20087;-93
2024/04/04 09:31:35;;;;;;;3.25;1.23;;;12.30;99.90;;;;;;5130650;27;20035;-94
2024/04/04 09:34:01;;;;;;;6.57;2.50;;;12.30;99.90;;;;;;5114768;27;20038;-93
2024/04/04 09:36:30;;;;;;;3.72;1.45;;;12.40;99.90;;;;;;5114376;27;20030;-94
2024/04/04 09:38:59;;;;;;;4.25;1.48;;;12.40;99.90;;;;;;5112567;27;20035;-93
2024/04/04 09:41:30;;;;;;;2.80;1.20;;;12.50;99.90;;;;;;5128643;27;20506;-94
2024/04/04 09:43:57;;;;;;;5.55;1.40;;;12.50;99.90;;;;;;5131881;27;20110;-94
2024/04/04 09:46:25;;;;;;;2.90;1.20;;;12.50;99.90;;;;;;5131923;27;20490;-93
2024/04/04 09:48:52;;;;;;;4.30;1.20;;;12.50;99.90;;;;;;5131999;27;20062;-93
2024/04/04 09:51:19;;;;;;;3.03;0.80;;;12.50;99.90;;;;;;5113424;27;20075;-94
2024/04/04 09:53:46;;;;;;;3.00;1.10;;;12.50;99.90;;;;;;5112176;27;20439;-94
2024/04/04 09:56:13;;;;;;;7.10;3.03;;;12.40;99.90;;;;;;5126492;27;20115;-93
2024/04/04 09:58:42;;;;;;;2.42;1.00;;;12.50;99.90;;;;;;5131863;27;20532;-94
2024/04/04 10:01:26;;;;;;;1.98;0.80;;;12.40;99.90;;;;;;5130787;27;20091;-93
2024/04/04 10:03:55;;;;;;;1.40;0.65;;;12.40;99.90;;;;;;5131404;27;20031;-94
2024/04/04 10:06:35;;;;;;;6.55;3.13;;;12.30;99.90;;;;;;5130174;27;20041;-93
2024/04/04 10:09:12;;;;;;;4.93;1.50;;;12.30;99.90;;;;;;5112335;27;20066;-94
2024/04/04 10:11:38;;;;;;;8.68;3.75;;;12.30;99.90;;;;;;5112327;27;20053;-94
2024/04/04 10:14:03;;;;;;;2.50;0.88;;;12.30;99.90;;;;;;5113595;27;20039;-94
2024/04/04 10:16:33;;;;;;;2.65;1.10;;;12.30;99.90;;;;;;5129999;27;20042;-94
2024/04/04 10:19:17;;;;;;;5.30;1.73;;;12.30;99.90;;;;;;5149057;27;20091;-94
2024/04/04 10:21:43;;;;;;;5.28;1.65;;;12.30;99.90;;;;;;5148999;27;20043;-93
2024/04/04 10:24:19;;;;;;;8.15;3.25;;;12.40;99.90;;;;;;5131353;27;20118;-93
2024/04/04 10:27:07;;;;;;;4.68;1.60;;;12.50;99.90;;;;;;5127991;27;20523;-94
2024/04/04 10:29:38;;;;;;;7.90;2.05;;;12.50;99.90;;;;;;5111255;27;20049;-92
2024/04/04 10:32:05;;;;;;;6.50;1.92;;;12.60;99.90;;;;;;5131154;27;20053;-94
2024/04/04 10:34:32;;;;;;;5.05;1.75;;;12.70;99.90;;;;;;5112625;27;20412;-93
2024/04/04 10:36:58;;;;;;;7.03;1.73;;;12.80;99.90;;;;;;5110152;27;20031;-93
2024/04/04 10:39:23;;;;;;;10.55;4.60;;;12.90;99.90;;;;;;5109818;27;20061;-93
2024/04/04 10:41:51;;;;;;;6.50;2.38;;;13.10;99.90;;;;;;5112778;27;20023;-94
2024/04/04 10:44:19;;;;;;;9.70;4.13;;;13.10;99.90;;;;;;5129902;27;20569;-94
2024/04/04 10:46:58;;;;;;;5.22;1.70;;;13.20;99.90;;;;;;5131011;27;20026;-94
2024/04/04 10:49:26;;;;;;;9.52;4.32;;;13.10;99.90;;;;;;5110740;27;20031;-93
2024/04/04 10:51:58;;;;;;;5.65;1.90;;;13.20;99.90;;;;;;5114152;27;20644;-94
2024/04/04 10:54:25;;;;;;;1.80;0.80;;;13.10;99.90;;;;;;5111704;27;20115;-94
2024/04/04 10:56:51;;;;;;;8.57;2.90;;;13.10;99.90;;;;;;5130456;27;20031;-93
2024/04/04 10:59:18;;;;;;;4.78;1.40;;;13.10;99.90;;;;;;5128783;27;20050;-93
2024/04/04 11:01:48;;;;;;;3.55;0.80;;;13.20;99.90;;;;;;5131370;27;20023;-94
2024/04/04 11:04:15;;;;;;;1.95;0.98;;;13.20;99.90;;;;;;5115181;27;20493;-93
2024/04/04 11:06:41;;;;;;;8.05;2.58;;;13.30;99.90;;;;;;5114105;27;20038;-93
2024/04/04 11:09:20;;;;;;;3.58;1.15;;;13.40;99.90;;;;;;5147030;27;20068;-93
2024/04/04 11:11:50;;;;;;;4.25;1.17;;;13.40;99.90;;;;;;5111796;27;20027;-94
2024/04/04 11:14:23;;;;;;;6.00;1.42;;;13.40;99.90;;;;;;5114226;27;20038;-94
2024/04/04 11:16:54;;;;;;;1.17;0.40;;;13.50;99.90;;;;;;5112629;27;20057;-94
2024/04/04 11:19:21;;;;;;;1.88;0.52;;;13.40;99.90;;;;;;5128386;27;20088;-93
2024/04/04 11:21:50;;;;;;;1.63;0.50;;;13.40;99.90;;;;;;5126761;27;20078;-94
2024/04/04 11:24:16;;;;;;;5.43;1.25;;;13.40;99.90;;;;;;5113622;27;20039;-93
2024/04/04 11:26:42;;;;;;;1.50;0.68;;;13.50;99.90;;;;;;5129501;27;20764;-93
2024/04/04 11:29:09;;;;;;;2.75;1.35;;;13.40;99.90;;;;;;5130226;27;20031;-94
2024/04/04 11:31:35;;;;;;;2.08;0.35;;;13.50;99.90;;;;;;5112310;27;20035;-93
2024/04/04 11:34:00;;;;;;;1.52;0.40;;;13.70;99.90;;;;;;5147087;27;20027;-93
2024/04/04 11:36:26;;;;;;;5.50;1.58;;;13.90;99.90;;;;;;5125270;27;20030;-94
2024/04/04 11:38:52;;;;;;;4.00;1.10;;;14.20;99.90;;;;;;5147634;27;20128;-93
2024/04/04 11:41:17;;;;;;;4.00;0.80;;;14.40;99.90;;;;;;5132223;27;20037;-94
2024/04/04 11:43:43;;;;;;;2.20;0.63;;;14.30;99.90;;;;;;5133076;27;20700;-94
2024/04/04 11:46:12;;;;;;;10.77;2.10;;;14.50;99.90;;;;;;5132975;27;20421;-94
2024/04/04 11:48:41;;;;;;;6.65;1.33;;;14.60;99.90;;;;;;5114565;27;20038;-93
2024/04/04 11:51:07;;;;;;;10.80;2.08;;;14.60;99.90;;;;;;5129451;27;20042;-93
2024/04/04 11:53:32;;;;;;;7.38;2.15;;;14.60;99.90;;;;;;5132708;27;20035;-94
2024/04/04 11:55:58;;;;;;;2.40;0.55;;;14.40;99.90;;;;;;5114055;27;20091;-94
2024/04/04 11:58:26;;;;;;;3.67;1.05;;;14.30;99.90;;;;;;5116429;27;20038;-94
2024/04/04 12:00:53;;;;;;;8.30;1.92;;;14.20;99.90;;;;;;5115436;27;20038;-93
2024/04/04 12:03:18;;;;;;;1.65;0.60;;;14.30;99.90;;;;;;5118500;27;20038;-93
2024/04/04 12:05:44;;;;;;;2.35;0.68;;;14.40;99.90;;;;;;5121689;27;20481;-93
2024/04/04 12:08:10;;;;;;;9.30;1.88;;;14.50;99.90;;;;;;5115694;27;20041;-93
2024/04/04 12:10:36;;;;;;;4.38;0.70;;;14.60;99.90;;;;;;5132419;27;20090;-92
2024/04/04 12:13:01;;;;;;;8.40;2.10;;;14.50;99.90;;;;;;5133438;27;20034;-93
2024/04/04 12:15:28;;;;;;;4.32;1.30;;;14.50;99.90;;;;;;5133218;27;20035;-92
2024/04/04 12:19:25;;;;;;;6.80;1.95;;;14.50;99.90;;;;;;5130168;27;20460;-93
2024/04/04 12:20:40;;;;;;;9.20;1.92;;;14.50;99.90;;;;;;5130550;27;20524;-94
2024/04/04 12:23:06;;;;;;;2.33;0.60;;;14.60;99.90;;;;;;5131916;27;20035;-94
2024/04/04 12:25:32;;;;;;;7.95;2.10;;;14.70;99.90;;;;;;5150736;27;20485;-93
2024/04/04 12:27:58;;;;;;;7.22;0.88;;;14.80;99.90;;;;;;5114153;27;20035;-93
2024/04/04 12:30:24;;;;;;;8.02;1.75;;;14.80;99.90;;;;;;5113653;27;20039;-93
2024/04/04 12:32:49;;;;;;;8.80;1.95;;;14.80;99.90;;;;;;5132484;27;20109;-92
2024/04/04 12:35:15;;;;;;;4.07;1.15;;;14.70;99.90;;;;;;5131167;27;20065;-93
2024/04/04 12:37:41;;;;;;;9.93;2.10;;;14.70;99.90;;;;;;5147734;27;20450;-94
2024/04/04 12:40:07;;;;;;;4.88;1.23;;;14.70;99.90;;;;;;5132690;27;20038;-93
2024/04/04 12:42:32;;;;;;;7.40;1.42;;;14.70;99.90;;;;;;5132130;27;21463;-93
2024/04/04 12:44:58;;;;;;;10.38;1.92;;;14.70;99.90;;;;;;5149919;27;20034;-93
2024/04/04 12:47:24;;;;;;;11.02;2.17;;;14.80;99.90;;;;;;5146956;27;20046;-93
2024/04/04 12:49:49;;;;;;;4.93;1.05;;;14.80;99.90;;;;;;5148499;27;20046;-93